Terminal Aerodrome Forecast
Issued by NWS

Home | Current Version | Previous Version | Text Only | Print | Product List | Glossary On
Versions: 1 2 3 4 5 6 7 8 9 10 11 12 13 14 15 16 17 18 19 20 21
901
FTUS46 KLOX 242323
TAFSBP
TAF
KSBP 242323Z 2500/2524 26010KT P6SM BKN070
     FM250300 16008KT P6SM -SHRA SCT025 OVC070
     FM250500 VRB03KT P6SM -RA BKN015 OVC025
     FM251100 VRB03KT P6SM -SHRA SCT015 OVC025
     FM251500 VRB03KT P6SM VCSH BKN025
     FM251700 31005KT P6SM BKN025 BKN040
     FM252000 32020G28KT P6SM BKN030 BKN050=

USA.gov is the U.S. government's official web portal to all federal, state and local government web resources and services.